createdAt,value
2023-04-09T00:01:04.248Z,33.10
2023-04-09T00:03:50.086Z,28.25
2023-04-09T00:09:13.222Z,30.33
2023-04-09T00:11:41.770Z,28.90
2023-04-09T00:14:15.128Z,30.15
2023-04-09T00:16:43.728Z,29.38
2023-04-09T00:19:14.023Z,30.42
2023-04-09T00:21:42.672Z,33.80
2023-04-09T00:24:25.250Z,31.45
2023-04-09T00:26:59.641Z,29.80
2023-04-09T00:29:28.230Z,31.05
2023-04-09T00:32:00.135Z,33.72
2023-04-09T00:34:29.536Z,37.08
2023-04-09T00:36:58.210Z,33.60
2023-04-09T00:39:31.826Z,33.65
2023-04-09T00:42:04.522Z,32.60
2023-04-09T00:44:36.573Z,33.35
2023-04-09T00:47:05.891Z,36.15
2023-04-09T00:49:36.045Z,31.60
2023-04-09T00:54:53.151Z,40.47
2023-04-09T00:57:22.017Z,40.10
2023-04-09T00:59:50.944Z,37.38
2023-04-09T01:02:20.264Z,38.08
2023-04-09T01:04:52.947Z,34.35
2023-04-09T01:07:36.225Z,34.78
2023-04-09T01:10:18.403Z,34.83
2023-04-09T01:13:08.945Z,33.33
2023-04-09T01:15:48.059Z,36.80
2023-04-09T01:21:43.211Z,40.08
2023-04-09T01:24:23.611Z,38.83
2023-04-09T01:27:08.071Z,39.83
2023-04-09T01:29:48.741Z,38.50
2023-04-09T01:32:20.955Z,37.30
2023-04-09T01:34:50.883Z,36.33
2023-04-09T01:37:25.062Z,34.47
2023-04-09T01:39:56.730Z,34.10
2023-04-09T01:42:32.031Z,33.10
2023-04-09T01:45:06.183Z,32.00
2023-04-09T01:47:42.061Z,32.08
2023-04-09T01:50:18.012Z,36.00
2023-04-09T01:52:53.699Z,34.15
2023-04-09T01:55:23.177Z,31.83
2023-04-09T01:57:52.330Z,30.70
2023-04-09T02:00:23.493Z,30.73
2023-04-09T02:03:00.526Z,31.10
2023-04-09T02:05:40.128Z,28.58
2023-04-09T02:08:12.320Z,27.77
2023-04-09T02:10:44.968Z,28.15
2023-04-09T02:13:18.706Z,25.20
2023-04-09T02:15:53.829Z,24.83
2023-04-09T02:18:29.534Z,26.45
2023-04-09T02:21:01.486Z,25.30
2023-04-09T02:23:32.636Z,24.95
2023-04-09T02:26:02.806Z,26.52
2023-04-09T02:28:31.894Z,23.55
2023-04-09T02:31:09.047Z,26.05
2023-04-09T02:33:50.589Z,25.38
2023-04-09T02:36:23.816Z,24.85
2023-04-09T02:38:55.705Z,25.50
2023-04-09T02:41:25.142Z,28.95
2023-04-09T02:43:53.895Z,26.38
2023-04-09T02:46:23.953Z,26.15
2023-04-09T02:48:52.939Z,25.50
2023-04-09T02:51:22.286Z,26.17
2023-04-09T02:53:54.404Z,27.02
2023-04-09T02:56:23.443Z,29.05
2023-04-09T02:58:54.478Z,26.20
2023-04-09T03:01:32.570Z,27.33
2023-04-09T03:04:12.470Z,29.98
2023-04-09T03:06:54.525Z,28.95
2023-04-09T03:09:26.202Z,26.52
2023-04-09T03:11:58.142Z,27.77
2023-04-09T03:14:36.410Z,28.80
2023-04-09T03:17:14.468Z,28.50
2023-04-09T03:19:46.627Z,29.35
2023-04-09T03:22:22.880Z,25.17
2023-04-09T03:24:56.700Z,27.92
2023-04-09T03:27:26.353Z,27.08
2023-04-09T03:30:05.594Z,28.90
2023-04-09T03:33:06.280Z,27.30
2023-04-09T03:35:36.369Z,30.15
2023-04-09T03:38:09.784Z,30.73
2023-04-09T03:40:46.054Z,29.77
2023-04-09T03:43:17.832Z,30.90
2023-04-09T03:45:46.766Z,31.35
2023-04-09T03:48:25.708Z,31.00
2023-04-09T03:50:57.626Z,29.42
2023-04-09T03:53:29.729Z,31.27
2023-04-09T03:56:01.283Z,29.60
2023-04-09T03:58:52.318Z,30.17
2023-04-09T04:01:24.589Z,27.25
2023-04-09T04:04:00.271Z,27.88
2023-04-09T04:06:29.310Z,28.58
2023-04-09T04:08:58.119Z,27.17
2023-04-09T04:11:32.750Z,28.00
2023-04-09T04:14:02.491Z,25.85
2023-04-09T04:16:33.182Z,29.27
2023-04-09T04:19:05.837Z,27.42
2023-04-09T04:21:40.421Z,29.30
2023-04-09T04:24:09.411Z,27.95
2023-04-09T04:26:41.516Z,25.70
2023-04-09T04:29:10.089Z,23.48
2023-04-09T04:35:12.647Z,37.67
2023-04-09T04:38:09.755Z,40.22
2023-04-09T04:44:12.685Z,37.42
2023-04-09T04:46:50.272Z,35.03
2023-04-09T04:49:25.963Z,35.78
2023-04-09T04:51:54.641Z,34.97
2023-04-09T04:54:27.729Z,42.60
2023-04-09T04:56:58.952Z,39.60
2023-04-09T05:02:29.825Z,40.38
2023-04-09T05:05:06.895Z,42.85
2023-04-09T05:07:44.888Z,54.97
2023-04-09T05:10:22.551Z,55.95
2023-04-09T05:12:53.801Z,49.58
2023-04-09T05:15:24.551Z,53.38
2023-04-09T05:17:56.015Z,52.88
2023-04-09T05:20:27.851Z,56.00
2023-04-09T05:22:57.362Z,61.03
2023-04-09T05:25:44.636Z,58.95
2023-04-09T05:28:17.212Z,65.40
2023-04-09T05:30:51.448Z,60.08
2023-04-09T05:33:26.541Z,61.30
2023-04-09T05:36:06.724Z,61.88
2023-04-09T05:38:35.719Z,59.90
2023-04-09T05:41:09.897Z,64.45
2023-04-09T05:43:43.500Z,66.47
2023-04-09T05:46:15.477Z,61.15
2023-04-09T05:48:45.627Z,60.03
2023-04-09T05:51:15.691Z,61.03
2023-04-09T05:53:47.367Z,58.47
2023-04-09T05:56:17.480Z,64.47
2023-04-09T05:58:46.076Z,65.32
2023-04-09T06:01:14.439Z,62.63
2023-04-09T06:03:43.038Z,61.42
2023-04-09T06:06:11.383Z,59.78
2023-04-09T06:08:39.829Z,52.85
2023-04-09T06:11:10.585Z,52.38
2023-04-09T06:13:40.589Z,49.88
2023-04-09T06:16:10.271Z,43.67
2023-04-09T06:18:38.783Z,44.25
2023-04-09T06:21:08.304Z,41.90
2023-04-09T06:23:37.708Z,41.80
2023-04-09T06:26:06.465Z,41.00
2023-04-09T06:28:37.332Z,40.50
2023-04-09T06:31:07.320Z,36.40
2023-04-09T06:33:35.604Z,33.13
2023-04-09T06:36:03.865Z,33.47
2023-04-09T06:38:35.486Z,33.80
2023-04-09T06:41:03.725Z,29.80
2023-04-09T06:43:32.005Z,30.87
2023-04-09T06:46:07.880Z,30.23
2023-04-09T06:48:36.293Z,29.55
2023-04-09T06:51:04.878Z,29.48
2023-04-09T06:53:33.270Z,29.65
2023-04-09T06:56:04.990Z,30.27
2023-04-09T06:58:33.393Z,30.48
2023-04-09T07:01:02.251Z,30.17
2023-04-09T07:03:32.381Z,28.85
2023-04-09T07:06:00.809Z,28.00
2023-04-09T07:08:29.250Z,26.70
2023-04-09T07:10:57.495Z,24.80
2023-04-09T07:13:25.906Z,27.00
2023-04-09T07:15:54.514Z,25.67
2023-04-09T07:18:22.884Z,25.77
2023-04-09T07:20:53.872Z,26.52
2023-04-09T07:23:22.927Z,28.85
2023-04-09T07:25:51.697Z,27.40
2023-04-09T07:28:20.161Z,26.58
2023-04-09T07:30:48.481Z,24.33
2023-04-09T07:33:16.834Z,26.77
2023-04-09T07:35:45.770Z,26.08
2023-04-09T07:38:16.356Z,25.42
2023-04-09T07:40:44.641Z,25.48
2023-04-09T07:43:12.899Z,25.42
2023-04-09T07:45:41.233Z,26.35
2023-04-09T07:48:10.474Z,25.50
2023-04-09T07:50:39.135Z,24.35
2023-04-09T07:53:07.390Z,26.25
2023-04-09T07:55:37.070Z,22.33
2023-04-09T07:58:06.004Z,23.25
2023-04-09T08:00:34.231Z,23.88
2023-04-09T08:03:03.904Z,24.88
2023-04-09T08:05:32.618Z,22.27
2023-04-09T08:08:01.401Z,22.33
2023-04-09T08:10:29.707Z,24.73
2023-04-09T08:12:59.466Z,23.85
2023-04-09T08:15:27.755Z,23.10
2023-04-09T08:17:56.335Z,23.88
2023-04-09T08:20:24.887Z,24.30
2023-04-09T08:22:53.272Z,25.13
2023-04-09T08:25:21.656Z,24.88
2023-04-09T08:27:49.941Z,24.95
2023-04-09T08:30:19.890Z,25.70
2023-04-09T08:32:48.611Z,26.13
2023-04-09T08:35:17.233Z,24.05
2023-04-09T08:37:45.647Z,24.60
2023-04-09T08:40:14.433Z,25.83
2023-04-09T08:42:45.927Z,23.85
2023-04-09T08:45:14.686Z,23.98
2023-04-09T08:47:48.959Z,23.63
2023-04-09T08:50:17.456Z,24.00
2023-04-09T08:52:48.228Z,22.17
2023-04-09T08:55:16.515Z,22.25
2023-04-09T08:57:45.098Z,24.27
2023-04-09T09:00:14.348Z,24.23
2023-04-09T09:03:03.453Z,22.13
2023-04-09T09:05:39.526Z,23.05
2023-04-09T09:08:10.391Z,23.55
2023-04-09T09:10:39.951Z,24.98
2023-04-09T09:13:28.272Z,23.08
2023-04-09T09:16:14.059Z,25.17
2023-04-09T09:18:45.328Z,24.77
2023-04-09T09:21:14.350Z,23.30
2023-04-09T09:23:43.104Z,21.40
2023-04-09T09:26:16.586Z,21.35
2023-04-09T09:28:45.358Z,23.85
2023-04-09T09:31:14.062Z,24.00
2023-04-09T09:33:44.285Z,23.40
2023-04-09T09:36:13.048Z,24.63
2023-04-09T09:38:55.666Z,23.88
2023-04-09T09:41:24.906Z,23.05
2023-04-09T09:43:56.933Z,25.10
2023-04-09T09:46:27.670Z,26.40
2023-04-09T09:49:00.905Z,22.77
2023-04-09T09:51:29.708Z,21.50
2023-04-09T09:53:58.504Z,20.60
2023-04-09T09:56:36.183Z,21.60
2023-04-09T09:59:09.026Z,18.90
2023-04-09T10:01:38.663Z,19.10
2023-04-09T10:04:13.613Z,19.13
2023-04-09T10:06:45.427Z,20.50
2023-04-09T10:09:14.631Z,21.20
2023-04-09T10:11:45.659Z,17.90
2023-04-09T10:14:14.844Z,18.20
2023-04-09T10:16:44.070Z,20.70
2023-04-09T10:19:15.202Z,21.20
2023-04-09T10:21:49.020Z,19.23
2023-04-09T10:24:18.220Z,18.47
2023-04-09T10:26:46.966Z,20.00
2023-04-09T10:29:16.673Z,49.23
2023-04-09T10:31:50.005Z,23.17
2023-04-09T10:34:24.838Z,19.43
2023-04-09T10:36:54.784Z,21.27
2023-04-09T10:39:27.001Z,18.53
2023-04-09T10:41:57.265Z,18.00
2023-04-09T10:44:27.411Z,19.57
2023-04-09T10:46:56.357Z,20.33
2023-04-09T10:49:27.396Z,17.10
2023-04-09T10:52:02.677Z,18.60
2023-04-09T10:54:46.047Z,17.77
2023-04-09T10:57:19.496Z,18.17
2023-04-09T10:59:49.700Z,20.50
2023-04-09T11:02:59.531Z,19.43
2023-04-09T11:05:33.866Z,15.90
2023-04-09T11:08:07.370Z,16.52
2023-04-09T11:10:38.751Z,17.10
2023-04-09T11:13:07.123Z,17.77
2023-04-09T11:15:37.805Z,20.50
2023-04-09T11:18:09.665Z,16.83
2023-04-09T11:20:40.300Z,19.27
2023-04-09T11:23:08.827Z,18.30
2023-04-09T11:25:37.202Z,17.35
2023-04-09T11:28:06.751Z,19.40
2023-04-09T11:30:35.753Z,21.63
2023-04-09T11:33:04.341Z,19.15
2023-04-09T11:35:36.163Z,19.48
2023-04-09T11:38:09.567Z,20.50
2023-04-09T11:40:43.526Z,19.85
2023-04-09T11:43:11.905Z,21.10
2023-04-09T11:45:40.288Z,18.45
2023-04-09T11:48:08.976Z,18.13
2023-04-09T11:50:37.999Z,18.67
2023-04-09T11:53:22.043Z,19.00
2023-04-09T11:55:52.574Z,18.70
2023-04-09T11:58:24.113Z,19.20
2023-04-09T12:00:55.181Z,20.75
2023-04-09T12:03:30.904Z,19.90
2023-04-09T12:06:02.690Z,19.85
2023-04-09T12:08:34.597Z,18.20
2023-04-09T12:11:10.916Z,20.42
2023-04-09T12:13:43.230Z,17.98
2023-04-09T12:16:12.176Z,18.15
2023-04-09T12:18:41.251Z,18.90
2023-04-09T12:21:09.472Z,17.67
2023-04-09T12:23:39.231Z,16.90
2023-04-09T12:26:07.748Z,16.15
2023-04-09T12:28:36.024Z,17.42
2023-04-09T12:31:04.340Z,16.65
2023-04-09T12:33:33.122Z,15.03
2023-04-09T12:36:01.613Z,16.20
2023-04-09T12:38:29.980Z,15.88
2023-04-09T12:41:00.066Z,18.52
2023-04-09T12:43:28.385Z,17.27
2023-04-09T12:45:57.147Z,19.27
2023-04-09T12:48:25.742Z,16.17
2023-04-09T12:50:54.068Z,17.20
2023-04-09T12:53:22.546Z,16.55
2023-04-09T12:55:50.981Z,17.17
2023-04-09T12:58:20.875Z,16.77
2023-04-09T13:00:49.449Z,17.02
2023-04-09T13:03:17.896Z,15.75
2023-04-09T13:05:46.333Z,14.30
2023-04-09T13:08:14.569Z,16.27
2023-04-09T13:10:43.128Z,17.27
2023-04-09T13:13:13.097Z,17.63
2023-04-09T13:15:45.106Z,16.35
2023-04-09T13:18:14.410Z,15.27
2023-04-09T13:20:42.733Z,16.60
2023-04-09T13:23:10.946Z,15.85
2023-04-09T13:25:39.203Z,18.15
2023-04-09T13:28:08.517Z,15.17
2023-04-09T13:30:36.914Z,17.00
2023-04-09T13:33:06.703Z,14.50
2023-04-09T13:35:35.036Z,16.80
2023-04-09T13:38:03.445Z,15.35
2023-04-09T13:40:31.970Z,16.92
2023-04-09T13:43:00.295Z,15.75
2023-04-09T13:45:28.728Z,15.75
2023-04-09T13:47:57.026Z,17.63
2023-04-09T13:50:27.010Z,16.70
2023-04-09T13:52:55.243Z,17.50
2023-04-09T13:55:23.582Z,18.25
2023-04-09T13:57:51.858Z,20.02
2023-04-09T14:00:20.910Z,16.48
2023-04-09T14:02:49.340Z,15.25
2023-04-09T14:05:17.702Z,16.40
2023-04-09T14:07:47.421Z,14.77
2023-04-09T14:10:15.933Z,13.20
2023-04-09T14:12:44.200Z,12.40
2023-04-09T14:15:12.670Z,11.75
2023-04-09T14:17:41.430Z,12.15
2023-04-09T14:20:10.489Z,11.88
2023-04-09T14:22:38.952Z,11.27
2023-04-09T14:25:09.638Z,10.65
2023-04-09T14:27:39.013Z,11.40
2023-04-09T14:30:08.634Z,13.05
2023-04-09T14:32:36.885Z,14.23
2023-04-09T14:35:05.694Z,13.52
2023-04-09T14:37:33.979Z,13.43
2023-04-09T14:40:02.368Z,15.57
2023-04-09T14:42:32.175Z,15.18
2023-04-09T14:45:00.541Z,14.52
2023-04-09T14:47:28.821Z,15.05
2023-04-09T14:49:57.101Z,12.40
2023-04-09T14:52:25.950Z,12.20
2023-04-09T14:54:54.263Z,13.13
2023-04-09T14:57:22.462Z,12.35
2023-04-09T14:59:52.269Z,13.48
2023-04-09T15:02:20.795Z,13.43
2023-04-09T15:04:49.410Z,14.45
2023-04-09T15:07:17.725Z,16.58
2023-04-09T15:09:46.235Z,16.27
2023-04-09T15:12:14.429Z,15.35
2023-04-09T15:14:42.727Z,15.88
2023-04-09T15:17:12.563Z,15.27
2023-04-09T15:19:40.819Z,16.23
2023-04-09T15:22:12.309Z,15.65
2023-04-09T15:24:40.919Z,16.83
2023-04-09T15:27:09.297Z,17.92
2023-04-09T15:29:37.654Z,16.75
2023-04-09T15:32:06.188Z,17.45
2023-04-09T15:34:38.725Z,16.45
2023-04-09T15:37:07.147Z,17.00
2023-04-09T15:39:35.577Z,17.50
2023-04-09T15:42:03.911Z,22.42
2023-04-09T15:44:32.167Z,22.42
2023-04-09T15:47:00.382Z,21.20
2023-04-09T15:49:28.588Z,21.85
2023-04-09T15:51:58.212Z,19.67
2023-04-09T15:54:26.477Z,20.33
2023-04-09T15:56:54.673Z,18.13
2023-04-09T15:59:23.436Z,17.25
2023-04-09T16:01:51.640Z,18.40
2023-04-09T16:04:20.072Z,17.65
2023-04-09T16:06:48.377Z,17.15
2023-04-09T16:09:18.163Z,17.35
2023-04-09T16:11:46.713Z,15.50
2023-04-09T16:14:15.108Z,15.95
2023-04-09T16:16:47.077Z,16.70
2023-04-09T16:19:15.940Z,18.92
2023-04-09T16:21:45.491Z,18.92
2023-04-09T16:24:15.541Z,18.38
2023-04-09T16:26:46.521Z,16.88
2023-04-09T16:29:20.735Z,19.25
2023-04-09T16:31:48.939Z,17.67
2023-04-09T16:34:17.282Z,17.77
2023-04-09T16:36:45.651Z,16.75
2023-04-09T16:39:15.331Z,17.27
2023-04-09T16:41:45.421Z,19.30
2023-04-09T16:44:13.946Z,18.10
2023-04-09T16:46:43.560Z,18.50
2023-04-09T16:49:11.780Z,20.10
2023-04-09T16:51:40.030Z,19.00
2023-04-09T16:54:08.430Z,25.30
2023-04-09T16:56:37.217Z,24.13
2023-04-09T16:59:09.913Z,24.30
2023-04-09T17:01:38.197Z,22.52
2023-04-09T17:04:07.063Z,24.05
2023-04-09T17:06:35.360Z,22.80
2023-04-09T17:09:05.380Z,21.67
2023-04-09T17:11:33.761Z,21.20
2023-04-09T17:14:02.170Z,22.42
2023-04-09T17:16:32.291Z,22.85
2023-04-09T17:19:00.844Z,28.60
2023-04-09T17:21:32.293Z,25.60
2023-04-09T17:24:02.817Z,20.77
2023-04-09T17:26:31.678Z,24.80
2023-04-09T17:28:59.973Z,20.02
2023-04-09T17:31:28.279Z,19.98
2023-04-09T17:33:58.042Z,19.10
2023-04-09T17:36:26.405Z,18.95
2023-04-09T17:38:56.663Z,19.45
2023-04-09T17:41:28.213Z,24.05
2023-04-09T17:43:56.482Z,20.13
2023-04-09T17:46:25.750Z,21.90
2023-04-09T17:48:54.344Z,23.40
2023-04-09T17:51:24.485Z,21.08
2023-04-09T17:53:57.553Z,19.25
2023-04-09T17:56:27.183Z,21.75
2023-04-09T17:58:56.544Z,18.80
2023-04-09T18:01:25.156Z,20.10
2023-04-09T18:03:53.767Z,20.10
2023-04-09T18:06:27.856Z,21.52
2023-04-09T18:08:56.144Z,20.35
2023-04-09T18:11:24.850Z,22.08
2023-04-09T18:13:53.099Z,22.48
2023-04-09T18:16:23.356Z,23.50
2023-04-09T18:18:52.119Z,24.67
2023-04-09T18:21:20.789Z,23.33
2023-04-09T18:23:50.676Z,22.80
2023-04-09T18:26:19.057Z,23.27
2023-04-09T18:28:50.601Z,23.35
2023-04-09T18:31:22.446Z,22.30
2023-04-09T18:33:51.419Z,21.40
2023-04-09T18:36:19.950Z,20.10
2023-04-09T18:38:49.988Z,20.77
2023-04-09T18:41:23.409Z,21.95
2023-04-09T18:43:54.547Z,20.88
2023-04-09T18:46:22.986Z,21.15
2023-04-09T18:48:51.748Z,21.08
2023-04-09T18:51:20.930Z,20.17
2023-04-09T18:53:54.065Z,20.35
2023-04-09T18:56:23.025Z,21.95
2023-04-09T18:58:52.034Z,20.63
2023-04-09T19:01:20.856Z,20.98
2023-04-09T19:03:49.310Z,21.38
2023-04-09T19:06:19.351Z,23.40
2023-04-09T19:08:57.248Z,22.13
2023-04-09T19:11:28.788Z,21.30
2023-04-09T19:14:02.192Z,20.42
2023-04-09T19:16:31.071Z,21.33
2023-04-09T19:19:02.313Z,22.15
2023-04-09T19:21:33.803Z,20.80
2023-04-09T19:24:06.024Z,22.08
2023-04-09T19:26:34.772Z,22.20
2023-04-09T19:29:03.749Z,21.98
2023-04-09T19:31:35.350Z,21.60
2023-04-09T19:34:03.656Z,23.73
2023-04-09T19:36:33.899Z,24.58
2023-04-09T19:39:03.572Z,23.50
2023-04-09T19:41:31.897Z,21.15
2023-04-09T19:44:07.482Z,22.02
2023-04-09T19:46:35.875Z,22.10
2023-04-09T19:49:04.248Z,21.77
2023-04-09T19:51:32.712Z,21.42
2023-04-09T19:54:01.045Z,21.55
2023-04-09T19:56:32.940Z,20.80
2023-04-09T19:59:02.285Z,20.10
2023-04-09T20:01:30.768Z,20.23
2023-04-09T20:03:59.690Z,21.45
2023-04-09T20:06:29.010Z,20.42
2023-04-09T20:08:57.439Z,19.42
2023-04-09T20:11:25.929Z,20.15
2023-04-09T20:13:57.317Z,19.30
2023-04-09T20:16:28.759Z,19.70
2023-04-09T20:18:57.082Z,21.20
2023-04-09T20:21:25.483Z,20.48
2023-04-09T20:23:53.832Z,17.90
2023-04-09T20:26:22.115Z,15.80
2023-04-09T20:28:50.501Z,18.42
2023-04-09T20:31:23.042Z,16.10
2023-04-09T20:33:51.526Z,16.38
2023-04-09T20:36:20.320Z,16.42
2023-04-09T20:38:49.729Z,16.05
2023-04-09T20:41:18.314Z,14.40
2023-04-09T20:43:46.954Z,17.45
2023-04-09T20:46:15.540Z,15.95
2023-04-09T20:48:48.085Z,17.20
2023-04-09T20:51:19.545Z,18.63
2023-04-09T20:53:48.126Z,17.40
2023-04-09T20:56:17.521Z,17.27
2023-04-09T20:58:51.885Z,16.27
2023-04-09T21:01:20.615Z,18.02
2023-04-09T21:03:51.028Z,22.45
2023-04-09T21:06:19.326Z,21.25
2023-04-09T21:08:47.730Z,22.35
2023-04-09T21:11:16.196Z,22.80
2023-04-09T21:13:53.764Z,23.63
2023-04-09T21:16:28.641Z,20.40
2023-04-09T21:18:58.490Z,22.23
2023-04-09T21:21:28.444Z,22.17
2023-04-09T21:23:56.712Z,22.92
2023-04-09T21:26:25.424Z,20.13
2023-04-09T21:28:53.897Z,19.40
2023-04-09T21:31:26.617Z,21.13
2023-04-09T21:33:57.579Z,21.85
2023-04-09T21:36:29.069Z,19.02
2023-04-09T21:38:57.415Z,19.33
2023-04-09T21:41:25.813Z,21.42
2023-04-09T21:43:54.066Z,22.65
2023-04-09T21:46:22.890Z,22.23
2023-04-09T21:48:51.406Z,22.83
2023-04-09T21:51:19.935Z,22.48
2023-04-09T21:53:49.798Z,22.13
2023-04-09T21:56:18.110Z,21.77
2023-04-09T21:58:47.518Z,21.38
2023-04-09T22:01:26.523Z,22.63
2023-04-09T22:04:03.754Z,19.58
2023-04-09T22:06:32.594Z,21.92
2023-04-09T22:09:05.701Z,22.60
2023-04-09T22:11:34.683Z,22.60
2023-04-09T22:14:07.052Z,22.55
2023-04-09T22:16:36.219Z,23.80
2023-04-09T22:19:04.609Z,24.55
2023-04-09T22:21:32.895Z,24.00
2023-04-09T22:24:02.606Z,21.25
2023-04-09T22:26:30.989Z,21.20
2023-04-09T22:28:59.368Z,21.50
2023-04-09T22:31:28.726Z,19.25
2023-04-09T22:33:58.669Z,21.55
2023-04-09T22:36:31.068Z,21.55
2023-04-09T22:38:59.319Z,22.60
2023-04-09T22:41:29.044Z,23.63
2023-04-09T22:43:57.686Z,22.70
2023-04-09T22:46:26.162Z,23.90
2023-04-09T22:49:04.427Z,24.15
2023-04-09T22:51:34.922Z,21.70
2023-04-09T22:54:03.313Z,24.75
2023-04-09T22:56:33.624Z,22.77
2023-04-09T22:59:02.256Z,23.60
2023-04-09T23:01:31.528Z,21.23
2023-04-09T23:03:59.908Z,20.15
2023-04-09T23:06:28.292Z,20.15
2023-04-09T23:08:56.552Z,20.27
2023-04-09T23:11:24.784Z,20.75
2023-04-09T23:13:54.613Z,22.23
2023-04-09T23:16:23.053Z,22.73
2023-04-09T23:18:51.525Z,23.75
2023-04-09T23:21:19.919Z,23.30
2023-04-09T23:23:48.192Z,23.80
2023-04-09T23:26:16.526Z,22.73
2023-04-09T23:28:44.864Z,23.58
2023-04-09T23:31:14.609Z,24.50
2023-04-09T23:33:43.388Z,24.88
2023-04-09T23:36:11.885Z,22.60
2023-04-09T23:38:41.076Z,23.17
2023-04-09T23:41:09.305Z,23.02
2023-04-09T23:43:37.553Z,22.17
2023-04-09T23:46:06.251Z,20.92
2023-04-09T23:48:36.250Z,20.90
2023-04-09T23:51:04.887Z,20.10
2023-04-09T23:53:33.144Z,21.33
2023-04-09T23:56:01.658Z,21.63
2023-04-09T23:58:30.137Z,22.50
